Terminal Aerodrome Forecast
Issued by NWS

Home | Current Version | Previous Version | Text Only | Print | Product List | Glossary On
Versions: 1 2 3 4 5 6 7 8 9 10 11 12 13 14 15 16 17 18 19 20 21
795
FTUS46 KSGX 241737
TAFCRQ
TAF
KCRQ 241737Z 2418/2518 VRB04KT P6SM FEW014 BKN150
     FM242000 24008KT P6SM BKN150
     FM250100 VRB04KT P6SM SCT016
     FM250500 VRB03KT P6SM BKN014=

USA.gov is the U.S. government's official web portal to all federal, state and local government web resources and services.